Warrensburg, New York
Current Conditions -  °F | °C
As of 11:53 AM on Sunday 21 Dec 2014 (Local Time) from KGFL Reporting Station
Overcast Overcast  
Wind Chill: -3°   Ceiling: 3700
Heat Index: -3°   Visibility: 7mi
Dew Point: -6°   Wind: 0mph
Humidity: 84%   Direction: NA
Pressure: 30.34"   Gusts: NA
Location:  43.5°N, 73.78°W
Report Text: KGFL 211653Z AUTO 00000KT 7SM OVC037 M03/M06 A3034 RMK AO2 SLP284 T10331056
Loading
Personal Weather Stations






























Interactive Weather Map New forecast layout! Learn more

10-Day Weather Forecast

Advertisements
Track Severe Weather on mobile